• Join FlightAware (Why Join?)
  • Login
  • US Flag 
04:24AM EDT


 

Airport Tracker/Info


-or-


 

Live Flight TrackerFlight Track Log ✈ ASH2834 ✈ 30-Apr-2013 ✈ KPHX - KTUS

Flight Track Log - Related Links

Times and Time Zones

All times are in EDT time to prevent confusion due to time zone crossing. See the ASH2834 flight status page for this flight to view local times or setup timezone preferences in your user account.

Time Position Orientation Groundspeed Altitude Reporting Facility
EDT Latitude Longitude Course Direction KTS MPH feet Rate Location/Type
01:02AM 33.4333 -112.0333 235° Southwest 148 170 2,100  Level Phoenix TRACON
01:03AM 33.4192 -112.0572 235° Southwest 161 185 2,900 2,340 Climbing Albuquerque Center
01:04AM 33.3803 -112.0969 220° Southwest 201 231 5,800 2,580 Climbing Albuquerque Center
01:05AM 33.3161 -112.0658 158° South 256 295 8,200 2,280 Climbing Albuquerque Center
01:06AM 33.2544 -112.0094 143° Southeast 278 320 10,500 2,160 Climbing Albuquerque Center
01:07AM 33.1828 -111.9411 141° Southeast 327 376 12,600 2,160 Climbing Albuquerque Center
01:08AM 33.1039 -111.8661 141° Southeast 360 414 14,900 2,040 Climbing Albuquerque Center
01:09AM 33.0225 -111.7875 141° Southeast 376 433 16,800 960 Climbing Albuquerque Center
01:10AM 32.9339 -111.7047 142° Southeast 402 463 16,900  Climbing Albuquerque Center
01:11AM 32.8442 -111.6175 141° Southeast 415 478 16,900 -600 Level Albuquerque Center
01:11AM 32.7622 -111.5433 143° Southeast 427 491 15,900 -1,080 Descending Albuquerque Center
01:12AM 32.7508 -111.5294 134° Southeast 427 491 15,600 -1,380 Descending Albuquerque Center
01:12AM 32.6922 -111.4783 144° Southeast 416 479 14,800 -1,800 Descending Albuquerque Center
01:13AM 32.6461 -111.4300 139° Southeast 400 460 13,800 -1,500 Descending Albuquerque Center
01:13AM 32.6092 -111.4017 147° Southeast 388 447 13,300 -1,380 Descending Albuquerque Center
01:14AM 32.5611 -111.3581 143° Southeast 382 440 12,400 -1,380 Descending Albuquerque Center
01:14AM 32.5278 -111.3350 150° Southeast 349 402 11,900 -1,200 Descending Albuquerque Center
01:15AM 32.4900 -111.2997 142° Southeast 328 377 11,200 -1,200 Descending Albuquerque Center
01:15AM 32.4611 -111.2772 147° Southeast 299 344 10,700 -1,200 Descending Albuquerque Center
01:16AM 32.4278 -111.2447 141° Southeast 290 334 10,000 -1,200 Descending Albuquerque Center
01:16AM 32.3942 -111.2194 148° Southeast 276 318 9,500 -1,140 Descending Albuquerque Center
01:17AM 32.3650 -111.1928 142° Southeast 279 321 8,900 -1,320 Descending Albuquerque Center
01:17AM 32.3328 -111.1678 147° Southeast 276 318 8,200 -1,320 Descending Albuquerque Center
01:18AM 32.3042 -111.1408 141° Southeast 273 314 7,600 -1,140 Descending Albuquerque Center
01:18AM 32.2736 -111.1156 145° Southeast 264 304 7,100 -1,200 Descending Albuquerque Center
01:19AM 32.2503 -111.0883 135° Southeast 261 300 6,400 -1,200 Descending Albuquerque Center
01:19AM 32.2253 -111.0656 142° Southeast 232 267 5,900 -1,620 Descending Albuquerque Center